createdAt,value
2022-12-10T00:01:26.509Z,98851.88
2022-12-10T00:04:28.349Z,98843.88
2022-12-10T00:07:30.212Z,98846.03
2022-12-10T00:10:32.045Z,98840.19
2022-12-10T00:13:34.862Z,98834.19
2022-12-10T00:16:36.831Z,98834.31
2022-12-10T00:19:38.875Z,98840.44
2022-12-10T00:22:40.853Z,98848.66
2022-12-10T00:25:42.699Z,98850.53
2022-12-10T00:28:45.328Z,98863.81
2022-12-10T00:31:47.247Z,98858.78
2022-12-10T00:34:49.144Z,98860.94
2022-12-10T00:37:51.084Z,98860.28
2022-12-10T00:40:53.074Z,98866.78
2022-12-10T00:43:55.200Z,98870.38
2022-12-10T00:46:56.995Z,98871.59
2022-12-10T00:49:59.001Z,98879.31
2022-12-10T00:53:00.938Z,98882.78
2022-12-10T00:56:04.362Z,98891.06
2022-12-10T00:59:06.305Z,98892.38
2022-12-10T01:02:08.309Z,98896.47
2022-12-10T01:05:10.216Z,98893.72
2022-12-10T01:08:12.154Z,98901.88
2022-12-10T01:11:15.127Z,98899.94
2022-12-10T01:14:18.574Z,98893.28
2022-12-10T01:17:22.373Z,98908.97
2022-12-10T01:20:24.335Z,98909.31
2022-12-10T01:23:26.168Z,98904.75
2022-12-10T01:26:29.461Z,98904.44
2022-12-10T01:29:31.483Z,98912.28
2022-12-10T01:32:33.332Z,98909.66
2022-12-10T01:35:37.353Z,98903.22
2022-12-10T01:38:39.419Z,98901.44
2022-12-10T01:41:57.796Z,98903.19
2022-12-10T01:45:01.809Z,98886.69
2022-12-10T01:48:07.992Z,98884.91
2022-12-10T01:51:10.770Z,98883.34
2022-12-10T01:54:14.722Z,98891.97
2022-12-10T01:57:26.329Z,98887.81
2022-12-10T02:00:28.116Z,98889.34
2022-12-10T02:03:48.614Z,98904.88
2022-12-10T02:07:07.837Z,98918.25
2022-12-10T02:10:10.019Z,98925.31
2022-12-10T02:13:24.263Z,98922.72
2022-12-10T02:16:37.566Z,98930.12
2022-12-10T02:19:47.297Z,98925.97
2022-12-10T02:22:56.604Z,98932.41
2022-12-10T02:26:01.532Z,98924.91
2022-12-10T02:29:25.445Z,98924.28
2022-12-10T02:32:29.116Z,98934.06
2022-12-10T02:35:32.123Z,98933.59
2022-12-10T02:38:34.661Z,98932.13
2022-12-10T02:41:37.164Z,98927.63
2022-12-10T02:44:39.105Z,98922.75
2022-12-10T02:47:41.028Z,98923.66
2022-12-10T02:50:42.855Z,98914.00
2022-12-10T02:53:45.127Z,98915.00
2022-12-10T02:56:50.028Z,98923.31
2022-12-10T02:59:57.963Z,98920.47
2022-12-10T03:03:15.773Z,98930.94
2022-12-10T03:06:19.536Z,98938.00
2022-12-10T03:09:23.823Z,98933.47
2022-12-10T03:12:43.335Z,98934.31
2022-12-10T03:15:45.172Z,98940.78
2022-12-10T03:18:48.718Z,98950.03
2022-12-10T03:21:50.612Z,98946.31
2022-12-10T03:24:52.503Z,98956.13
2022-12-10T03:27:55.333Z,98960.88
2022-12-10T03:30:57.256Z,98971.94
2022-12-10T03:33:59.200Z,98967.19
2022-12-10T03:37:01.327Z,98963.81
2022-12-10T03:40:03.997Z,98972.19
2022-12-10T03:43:05.830Z,98963.41
2022-12-10T03:46:07.825Z,98962.25
2022-12-10T03:49:11.179Z,98962.88
2022-12-10T03:52:13.257Z,98986.56
2022-12-10T03:55:15.245Z,98992.69
2022-12-10T03:58:20.331Z,98993.22
2022-12-10T04:01:22.665Z,98978.94
2022-12-10T04:04:24.820Z,98979.75
2022-12-10T04:07:26.691Z,98977.06
2022-12-10T04:10:28.524Z,98986.47
2022-12-10T04:13:50.604Z,98997.00
2022-12-10T04:16:52.721Z,98998.88
2022-12-10T04:19:55.761Z,98998.72
2022-12-10T04:23:16.479Z,98992.03
2022-12-10T04:26:38.683Z,98989.00
2022-12-10T04:29:40.623Z,98987.97
2022-12-10T04:32:42.512Z,98998.06
2022-12-10T04:35:44.353Z,99001.34
2022-12-10T04:38:46.210Z,99009.53
2022-12-10T04:41:48.720Z,99003.53
2022-12-10T04:44:50.550Z,98998.47
2022-12-10T04:47:52.390Z,98988.78
2022-12-10T04:50:54.180Z,98991.72
2022-12-10T04:53:56.162Z,98991.69
2022-12-10T04:56:58.151Z,99001.75
2022-12-10T05:00:00.262Z,98999.50
2022-12-10T05:03:02.219Z,99002.37
2022-12-10T05:06:15.625Z,98999.91
2022-12-10T05:09:17.546Z,99009.03
2022-12-10T05:12:19.377Z,98996.38
2022-12-10T05:15:21.260Z,99005.94
2022-12-10T05:18:23.060Z,99003.88
2022-12-10T05:21:46.293Z,99021.94
2022-12-10T05:24:48.115Z,99018.13
2022-12-10T05:27:49.910Z,99044.09
2022-12-10T05:30:52.239Z,99043.13
2022-12-10T05:33:55.000Z,99038.63
2022-12-10T05:36:56.961Z,99041.09
2022-12-10T05:39:58.864Z,99044.69
2022-12-10T05:43:00.832Z,99038.97
2022-12-10T05:46:03.061Z,99039.13
2022-12-10T05:49:05.670Z,99040.03
2022-12-10T05:52:07.548Z,99041.66
2022-12-10T05:55:09.629Z,99047.53
2022-12-10T05:58:11.482Z,99043.44
2022-12-10T06:01:14.522Z,99048.00
2022-12-10T06:04:16.407Z,99045.34
2022-12-10T06:07:18.387Z,99051.66
2022-12-10T06:10:20.289Z,99050.25
2022-12-10T06:13:22.249Z,99056.66
2022-12-10T06:16:24.699Z,99064.03
2022-12-10T06:19:26.602Z,99068.28
2022-12-10T06:22:28.431Z,99067.03
2022-12-10T06:25:30.322Z,99077.50
2022-12-10T06:28:32.144Z,99078.94
2022-12-10T06:31:34.114Z,99080.19
2022-12-10T06:34:41.265Z,99074.22
2022-12-10T06:37:44.690Z,99071.72
2022-12-10T06:40:46.574Z,99079.47
2022-12-10T06:43:48.899Z,99081.13
2022-12-10T06:46:50.784Z,99083.28
2022-12-10T06:49:52.690Z,99094.63
2022-12-10T06:52:55.193Z,99085.28
2022-12-10T06:55:58.880Z,99088.94
2022-12-10T06:59:00.684Z,99099.53
2022-12-10T07:02:03.107Z,99098.34
2022-12-10T07:05:05.141Z,99085.25
2022-12-10T07:08:07.156Z,99089.03
2022-12-10T07:11:10.102Z,99089.59
2022-12-10T07:14:15.315Z,99094.13
2022-12-10T07:17:17.430Z,99089.69
2022-12-10T07:20:19.734Z,99080.19
2022-12-10T07:23:21.593Z,99097.56
2022-12-10T07:26:23.468Z,99089.81
2022-12-10T07:29:27.556Z,99097.09
2022-12-10T07:32:29.391Z,99093.63
2022-12-10T07:35:31.207Z,99076.75
2022-12-10T07:38:33.063Z,99054.06
2022-12-10T07:41:35.982Z,99052.59
2022-12-10T07:44:37.910Z,99057.78
2022-12-10T07:47:40.247Z,99064.00
2022-12-10T07:50:42.159Z,99066.00
2022-12-10T07:53:44.398Z,99078.72
2022-12-10T07:56:46.457Z,99090.19
2022-12-10T07:59:48.374Z,99092.34
2022-12-10T08:02:50.266Z,99109.78
2022-12-10T08:06:11.562Z,99104.75
2022-12-10T08:09:13.408Z,99097.31
2022-12-10T08:12:15.403Z,99074.13
2022-12-10T08:15:17.492Z,99083.78
2022-12-10T08:18:19.339Z,99073.34
2022-12-10T08:21:22.291Z,99078.25
2022-12-10T08:24:24.190Z,99081.44
2022-12-10T08:27:26.181Z,99074.50
2022-12-10T08:30:28.233Z,99067.97
2022-12-10T08:33:30.155Z,99075.31
2022-12-10T08:36:32.066Z,99067.97
2022-12-10T08:39:34.569Z,99064.37
2022-12-10T08:42:36.400Z,99067.44
2022-12-10T08:45:38.290Z,99046.88
2022-12-10T08:48:40.389Z,99061.78
2022-12-10T08:51:42.296Z,99070.13
2022-12-10T08:54:44.146Z,99090.28
2022-12-10T08:57:46.115Z,99087.28
2022-12-10T09:00:48.455Z,99084.50
2022-12-10T09:03:51.290Z,99089.53
2022-12-10T09:06:53.759Z,99099.63
2022-12-10T09:09:55.636Z,99096.97
2022-12-10T09:13:02.952Z,99090.81
2022-12-10T09:16:05.977Z,99095.84
2022-12-10T09:19:07.969Z,99087.69
2022-12-10T09:22:09.793Z,99106.88
2022-12-10T09:25:11.852Z,99092.72
2022-12-10T09:28:13.824Z,99099.16
2022-12-10T09:31:20.609Z,99089.88
2022-12-10T09:34:22.892Z,99076.81
2022-12-10T09:37:24.830Z,99091.75
2022-12-10T09:40:35.497Z,99092.63
2022-12-10T09:43:50.933Z,99087.88
2022-12-10T09:46:53.783Z,99074.22
2022-12-10T09:49:58.720Z,99066.62
2022-12-10T09:53:00.600Z,99057.38
2022-12-10T09:56:03.407Z,99061.88
2022-12-10T09:59:07.792Z,99054.13
2022-12-10T10:02:26.906Z,99050.69
2022-12-10T10:05:29.808Z,99047.97
2022-12-10T10:08:39.502Z,99035.88
2022-12-10T10:11:41.394Z,99045.25
2022-12-10T10:14:44.050Z,99038.78
2022-12-10T10:17:46.740Z,99039.44
2022-12-10T10:20:48.619Z,99039.59
2022-12-10T10:23:51.008Z,99037.84
2022-12-10T10:26:53.929Z,99036.28
2022-12-10T10:29:58.267Z,99040.19
2022-12-10T10:33:00.370Z,99038.50
2022-12-10T10:36:05.766Z,99033.09
2022-12-10T10:39:10.522Z,99027.41
2022-12-10T10:42:12.670Z,99033.16
2022-12-10T10:45:33.132Z,99034.81
2022-12-10T10:48:35.254Z,99038.88
2022-12-10T10:51:37.245Z,99047.72
2022-12-10T10:54:40.036Z,99053.53
2022-12-10T10:57:43.285Z,99048.94
2022-12-10T11:00:53.714Z,99038.03
2022-12-10T11:03:56.944Z,99046.88
2022-12-10T11:07:01.229Z,99039.88
2022-12-10T11:10:04.144Z,99026.69
2022-12-10T11:13:07.800Z,99028.03
2022-12-10T11:16:16.050Z,99022.94
2022-12-10T11:19:21.855Z,99011.47
2022-12-10T11:22:24.803Z,99015.78
2022-12-10T11:25:34.410Z,99009.22
2022-12-10T11:28:48.694Z,99011.50
2022-12-10T11:32:14.147Z,99007.78
2022-12-10T11:35:19.590Z,98995.63
2022-12-10T11:38:21.407Z,98991.53
2022-12-10T11:41:29.302Z,98977.72
2022-12-10T11:44:31.193Z,98979.87
2022-12-10T11:47:36.804Z,98978.59
2022-12-10T11:50:48.851Z,98976.38
2022-12-10T11:53:56.615Z,98970.00
2022-12-10T11:56:58.372Z,98955.88
2022-12-10T12:00:05.851Z,98949.09
2022-12-10T12:03:11.165Z,98941.31
2022-12-10T12:06:33.377Z,98943.38
2022-12-10T12:09:41.201Z,98943.28
2022-12-10T12:12:43.264Z,98955.09
2022-12-10T12:15:46.413Z,98944.28
2022-12-10T12:19:00.699Z,98946.72
2022-12-10T12:22:05.896Z,98936.75
2022-12-10T12:25:08.469Z,98935.50
2022-12-10T12:28:30.852Z,98939.22
2022-12-10T12:31:37.070Z,98928.28
2022-12-10T12:34:42.251Z,98926.53
2022-12-10T12:37:48.908Z,98940.56
2022-12-10T12:40:54.733Z,98926.87
2022-12-10T12:44:05.562Z,98928.13
2022-12-10T12:47:26.573Z,98924.50
2022-12-10T12:50:40.886Z,98928.28
2022-12-10T12:53:42.822Z,98925.72
2022-12-10T12:56:47.845Z,98932.44
2022-12-10T12:59:55.022Z,98932.69
2022-12-10T13:03:00.024Z,98940.50
2022-12-10T13:06:22.061Z,98948.41
2022-12-10T13:09:27.888Z,98937.09
2022-12-10T13:12:30.951Z,98949.59
2022-12-10T13:15:36.425Z,98950.53
2022-12-10T13:18:39.214Z,98948.41
2022-12-10T13:21:57.873Z,98972.28
2022-12-10T13:25:12.554Z,98957.00
2022-12-10T13:28:22.247Z,98954.25
2022-12-10T13:31:33.454Z,98952.84
2022-12-10T13:34:36.194Z,98954.88
2022-12-10T13:37:50.001Z,98950.13
2022-12-10T13:41:19.387Z,98942.19
2022-12-10T13:44:36.686Z,98943.81
2022-12-10T13:47:38.553Z,98954.41
2022-12-10T13:51:02.387Z,98951.94
2022-12-10T13:54:23.148Z,98944.19
2022-12-10T13:57:43.210Z,98935.06
2022-12-10T14:01:07.692Z,98930.94
2022-12-10T14:04:38.828Z,98928.34
2022-12-10T14:07:41.299Z,98930.41
2022-12-10T14:10:43.334Z,98918.78
2022-12-10T14:13:46.284Z,98913.22
2022-12-10T14:16:48.128Z,98918.00
2022-12-10T14:19:50.861Z,98914.16
2022-12-10T14:22:53.908Z,98916.41
2022-12-10T14:25:56.147Z,98925.16
2022-12-10T14:28:59.320Z,98923.47
2022-12-10T14:32:01.226Z,98930.41
2022-12-10T14:35:04.645Z,98931.81
2022-12-10T14:38:06.850Z,98926.16
2022-12-10T14:41:08.682Z,98921.97
2022-12-10T14:44:12.583Z,98919.19
2022-12-10T14:47:18.187Z,98922.00
2022-12-10T14:50:20.105Z,98922.09
2022-12-10T14:53:28.768Z,98925.31
2022-12-10T14:56:35.340Z,98922.66
2022-12-10T14:59:41.866Z,98917.25
2022-12-10T15:02:45.401Z,98915.28
2022-12-10T15:05:54.249Z,98927.63
2022-12-10T15:08:57.109Z,98912.84
2022-12-10T15:12:00.136Z,98914.34
2022-12-10T15:15:22.223Z,98908.34
2022-12-10T15:18:35.211Z,98902.28
2022-12-10T15:21:46.630Z,98895.34
2022-12-10T15:24:48.798Z,98901.75
2022-12-10T15:28:13.979Z,98899.12
2022-12-10T15:31:27.971Z,98897.16
2022-12-10T15:34:30.378Z,98900.00
2022-12-10T15:37:36.113Z,98900.28
2022-12-10T15:40:38.331Z,98889.59
2022-12-10T15:43:40.321Z,98885.91
2022-12-10T15:46:52.155Z,98888.19
2022-12-10T15:49:55.393Z,98875.06
2022-12-10T15:52:57.293Z,98884.16
2022-12-10T15:55:59.131Z,98885.09
2022-12-10T15:59:00.980Z,98883.31
2022-12-10T16:02:04.139Z,98886.06
2022-12-10T16:05:12.181Z,98878.88
2022-12-10T16:08:18.788Z,98868.69
2022-12-10T16:11:20.926Z,98864.72
2022-12-10T16:14:22.925Z,98861.00
2022-12-10T16:17:24.753Z,98863.34
2022-12-10T16:20:27.879Z,98863.16
2022-12-10T16:23:29.742Z,98852.25
2022-12-10T16:26:31.772Z,98856.03
2022-12-10T16:29:33.821Z,98843.25
2022-12-10T16:32:35.807Z,98842.81
2022-12-10T16:35:38.024Z,98845.06
2022-12-10T16:38:40.393Z,98843.66
2022-12-10T16:41:42.492Z,98835.03
2022-12-10T16:44:44.364Z,98829.31
2022-12-10T16:47:46.397Z,98828.47
2022-12-10T16:50:48.899Z,98830.97
2022-12-10T16:53:50.836Z,98828.84
2022-12-10T16:56:52.676Z,98819.16
2022-12-10T16:59:54.601Z,98817.09
2022-12-10T17:03:03.020Z,98821.38
2022-12-10T17:06:07.425Z,98814.59
2022-12-10T17:09:09.506Z,98805.09
2022-12-10T17:12:11.606Z,98800.44
2022-12-10T17:15:17.205Z,98797.56
2022-12-10T17:18:19.608Z,98791.50
2022-12-10T17:21:22.594Z,98787.06
2022-12-10T17:24:24.562Z,98785.81
2022-12-10T17:27:26.567Z,98782.88
2022-12-10T17:30:28.377Z,98779.56
2022-12-10T17:33:30.625Z,98782.53
2022-12-10T17:36:32.701Z,98761.06
2022-12-10T17:39:34.570Z,98764.84
2022-12-10T17:42:36.469Z,98770.00
2022-12-10T17:45:38.670Z,98754.09
2022-12-10T17:48:41.139Z,98754.69
2022-12-10T17:51:43.545Z,98746.16
2022-12-10T17:54:45.670Z,98740.25
2022-12-10T17:57:47.523Z,98741.59
2022-12-10T18:00:49.918Z,98738.06
2022-12-10T18:03:51.808Z,98739.44
2022-12-10T18:06:53.658Z,98739.31
2022-12-10T18:09:55.543Z,98727.09
2022-12-10T18:12:57.731Z,98722.16
2022-12-10T18:15:59.760Z,98726.72
2022-12-10T18:19:02.984Z,98721.84
2022-12-10T18:22:04.832Z,98724.59
2022-12-10T18:25:07.005Z,98708.91
2022-12-10T18:28:25.831Z,98704.00
2022-12-10T18:31:29.290Z,98703.00
2022-12-10T18:34:31.341Z,98704.28
2022-12-10T18:37:33.337Z,98706.16
2022-12-10T18:40:35.287Z,98708.59
2022-12-10T18:43:37.115Z,98694.44
2022-12-10T18:46:39.664Z,98700.72
2022-12-10T18:49:41.609Z,98691.06
2022-12-10T18:52:43.460Z,98687.31
2022-12-10T18:55:45.368Z,98678.09
2022-12-10T18:58:47.545Z,98673.81
2022-12-10T19:01:49.397Z,98668.25
2022-12-10T19:04:51.335Z,98663.69
2022-12-10T19:07:53.452Z,98664.63
2022-12-10T19:10:55.797Z,98668.69
2022-12-10T19:13:57.869Z,98669.03
2022-12-10T19:17:01.402Z,98662.13
2022-12-10T19:20:03.610Z,98660.72
2022-12-10T19:23:05.549Z,98655.16
2022-12-10T19:26:14.651Z,98657.75
2022-12-10T19:29:18.166Z,98655.75
2022-12-10T19:32:19.975Z,98648.84
2022-12-10T19:35:23.538Z,98641.81
2022-12-10T19:38:25.449Z,98640.41
2022-12-10T19:41:27.378Z,98632.50
2022-12-10T19:44:29.378Z,98637.75
2022-12-10T19:47:31.288Z,98635.38
2022-12-10T19:50:36.144Z,98627.13
2022-12-10T19:53:39.266Z,98625.44
2022-12-10T19:56:41.181Z,98620.31
2022-12-10T19:59:43.274Z,98613.84
2022-12-10T20:02:45.727Z,98614.81
2022-12-10T20:05:47.676Z,98615.00
2022-12-10T20:08:49.622Z,98608.47
2022-12-10T20:11:51.868Z,98617.22
2022-12-10T20:14:53.692Z,98607.97
2022-12-10T20:17:55.793Z,98610.94
2022-12-10T20:20:57.851Z,98611.25
2022-12-10T20:24:03.195Z,98612.31
2022-12-10T20:27:05.507Z,98604.88
2022-12-10T20:30:07.618Z,98588.09
2022-12-10T20:33:44.371Z,98594.03
2022-12-10T20:36:31.377Z,98594.00
2022-12-10T20:39:33.788Z,98576.78
2022-12-10T20:42:35.595Z,98578.66
2022-12-10T20:45:37.705Z,98578.13
2022-12-10T20:48:39.587Z,98577.84
2022-12-10T20:51:41.723Z,98578.38
2022-12-10T20:54:43.589Z,98583.47
2022-12-10T20:57:45.545Z,98573.88
2022-12-10T21:00:47.407Z,98566.88
2022-12-10T21:03:49.561Z,98566.19
2022-12-10T21:06:51.398Z,98563.44
2022-12-10T21:09:53.259Z,98553.75
2022-12-10T21:12:55.186Z,98558.13
2022-12-10T21:15:58.841Z,98548.38
2022-12-10T21:19:00.928Z,98550.25
2022-12-10T21:22:02.892Z,98548.97
2022-12-10T21:25:05.133Z,98555.59
2022-12-10T21:28:07.149Z,98556.00
2022-12-10T21:31:24.897Z,98543.66
2022-12-10T21:34:26.824Z,98552.06
2022-12-10T21:37:28.651Z,98546.72
2022-12-10T21:40:30.781Z,98553.69
2022-12-10T21:43:32.673Z,98541.81
2022-12-10T21:46:34.882Z,98532.47
2022-12-10T21:49:36.867Z,98535.19
2022-12-10T21:52:39.298Z,98528.75
2022-12-10T21:55:43.620Z,98521.34
2022-12-10T21:58:45.550Z,98525.97
2022-12-10T22:01:47.485Z,98520.84
2022-12-10T22:04:50.052Z,98508.91
2022-12-10T22:07:51.967Z,98516.91
2022-12-10T22:10:53.983Z,98516.47
2022-12-10T22:13:56.000Z,98511.25
2022-12-10T22:16:57.860Z,98510.19
2022-12-10T22:19:59.746Z,98517.84
2022-12-10T22:23:01.643Z,98514.66
2022-12-10T22:26:07.181Z,98513.06
2022-12-10T22:29:09.005Z,98511.28
2022-12-10T22:32:10.972Z,98510.88
2022-12-10T22:35:13.079Z,98504.97
2022-12-10T22:38:15.065Z,98508.00
2022-12-10T22:41:17.131Z,98503.28
2022-12-10T22:44:21.881Z,98498.34
2022-12-10T22:47:23.891Z,98490.97
2022-12-10T22:50:25.782Z,98486.41
2022-12-10T22:53:27.705Z,98483.69
2022-12-10T22:56:30.013Z,98474.38
2022-12-10T22:59:32.011Z,98469.25
2022-12-10T23:02:33.897Z,98469.78
2022-12-10T23:05:36.082Z,98459.53
2022-12-10T23:08:37.949Z,98461.19
2022-12-10T23:11:59.951Z,98441.34
2022-12-10T23:15:02.056Z,98436.88
2022-12-10T23:18:04.063Z,98419.72
2022-12-10T23:21:16.179Z,98414.34
2022-12-10T23:24:18.043Z,98404.31
2022-12-10T23:27:20.292Z,98405.75
2022-12-10T23:30:22.433Z,98397.69
2022-12-10T23:33:24.254Z,98395.63
2022-12-10T23:36:26.252Z,98391.50
2022-12-10T23:39:28.200Z,98389.09
2022-12-10T23:42:30.625Z,98383.47
2022-12-10T23:45:32.528Z,98381.56
2022-12-10T23:48:34.395Z,98377.34
2022-12-10T23:51:36.246Z,98360.41
2022-12-10T23:54:38.107Z,98351.97
2022-12-10T23:57:40.059Z,98364.47
